createdAt,value
2018-11-11T00:00:20.012Z,21.3
2018-11-11T00:01:11.339Z,21.3
2018-11-11T00:02:01.452Z,21.3
2018-11-11T00:02:50.716Z,21.3
2018-11-11T00:03:41.009Z,21.3
2018-11-11T00:04:30.404Z,21.3
2018-11-11T00:05:20.122Z,21.3
2018-11-11T00:06:10.399Z,21.3
2018-11-11T00:07:01.234Z,21.3
2018-11-11T00:25:08.969Z,21.3
2018-11-11T00:25:59.907Z,21.3
2018-11-11T00:26:49.110Z,21.3
2018-11-11T00:27:40.617Z,21.3
2018-11-11T00:28:31.441Z,21.3
2018-11-11T00:29:20.739Z,21.3
2018-11-11T00:30:09.357Z,21.3
2018-11-11T00:30:59.480Z,21.3
2018-11-11T00:31:49.817Z,21.3
2018-11-11T00:32:39.775Z,21.3
2018-11-11T00:33:30.413Z,21.3
2018-11-11T00:34:19.723Z,21.3
2018-11-11T00:35:10.837Z,21.3
2018-11-11T00:36:00.282Z,21.3
2018-11-11T00:36:49.851Z,21.3
2018-11-11T00:37:41.337Z,21.3
2018-11-11T00:38:30.519Z,21.3
2018-11-11T00:39:21.275Z,21.3
2018-11-11T00:40:09.705Z,21.3
2018-11-11T00:41:00.794Z,21.3
2018-11-11T00:41:51.621Z,21.3
2018-11-11T00:42:40.641Z,21.3
2018-11-11T00:43:30.590Z,21.3
2018-11-11T00:44:20.187Z,21.3
2018-11-11T00:45:10.730Z,21.4
2018-11-11T00:46:00.536Z,21.3
2018-11-11T00:46:50.341Z,21.4
2018-11-11T00:47:40.479Z,21.4
2018-11-11T00:48:30.167Z,21.4
2018-11-11T00:49:20.196Z,21.4
2018-11-11T00:50:11.142Z,21.4
2018-11-11T00:51:02.461Z,21.4
2018-11-11T00:51:51.696Z,21.4
2018-11-11T00:52:41.013Z,21.4
2018-11-11T00:53:31.577Z,21.4
2018-11-11T00:54:21.653Z,21.4
2018-11-11T00:55:10.989Z,21.4
2018-11-11T00:56:01.996Z,21.4
2018-11-11T00:56:52.456Z,21.4
2018-11-11T00:57:41.638Z,21.4
2018-11-11T00:58:32.565Z,21.4
2018-11-11T00:59:22.819Z,21.4
2018-11-11T01:00:12.298Z,21.4
2018-11-11T01:01:02.381Z,21.4
2018-11-11T01:01:52.151Z,21.4
2018-11-11T01:02:42.033Z,21.4
2018-11-11T01:03:32.366Z,21.4
2018-11-11T01:04:22.702Z,21.4
2018-11-11T01:05:12.038Z,21.4
2018-11-11T01:06:02.546Z,21.4
2018-11-11T01:06:51.835Z,21.4
2018-11-11T01:07:42.260Z,21.4
2018-11-11T01:08:32.920Z,21.4
2018-11-11T01:09:23.247Z,21.4
2018-11-11T01:10:12.795Z,21.4
2018-11-11T01:11:02.565Z,21.4
2018-11-11T01:11:52.293Z,21.4
2018-11-11T01:12:42.375Z,21.4
2018-11-11T01:13:32.505Z,21.4
2018-11-11T01:14:22.859Z,21.4
2018-11-11T01:15:12.867Z,21.3
2018-11-11T01:16:03.852Z,21.3
2018-11-11T01:16:53.596Z,21.3
2018-11-11T01:17:43.297Z,21.4
2018-11-11T01:18:33.402Z,21.4
2018-11-11T01:19:23.802Z,21.4
2018-11-11T01:20:13.523Z,21.4
2018-11-11T01:21:03.809Z,21.4
2018-11-11T01:21:54.249Z,21.4
2018-11-11T01:22:43.776Z,21.4
2018-11-11T01:23:32.927Z,21.4
2018-11-11T01:24:23.866Z,21.4
2018-11-11T01:25:13.927Z,21.4
2018-11-11T01:26:03.964Z,21.4
2018-11-11T01:26:54.513Z,21.4
2018-11-11T01:27:43.294Z,21.4
2018-11-11T01:28:33.599Z,21.4
2018-11-11T01:29:23.004Z,21.4
2018-11-11T01:30:13.824Z,21.4
2018-11-11T01:31:03.594Z,21.4
2018-11-11T01:31:53.418Z,21.5
2018-11-11T01:32:44.501Z,21.5
2018-11-11T01:33:33.774Z,21.5
2018-11-11T01:34:23.539Z,21.5
2018-11-11T01:35:13.031Z,21.5
2018-11-11T01:36:05.243Z,21.5
2018-11-11T01:36:54.534Z,21.5
2018-11-11T01:37:45.100Z,21.6
2018-11-11T01:38:34.036Z,21.5
2018-11-11T01:39:23.923Z,21.6
2018-11-11T01:40:14.797Z,21.5
2018-11-11T01:41:04.225Z,21.6
2018-11-11T01:41:55.036Z,21.6
2018-11-11T01:42:45.588Z,21.5
2018-11-11T01:43:34.256Z,21.5
2018-11-11T01:44:25.083Z,21.5
2018-11-11T01:45:14.517Z,21.6
2018-11-11T01:46:04.614Z,21.5
2018-11-11T01:46:55.206Z,21.5
2018-11-11T01:47:44.437Z,21.5
2018-11-11T01:48:35.012Z,21.5
2018-11-11T01:49:25.143Z,21.5
2018-11-11T01:50:15.256Z,21.5
2018-11-11T01:51:05.598Z,21.5
2018-11-11T01:51:55.111Z,21.4
2018-11-11T01:52:45.599Z,21.4
2018-11-11T01:53:35.395Z,21.4
2018-11-11T01:54:24.905Z,21.4
2018-11-11T01:55:15.340Z,21.4
2018-11-11T01:56:04.045Z,21.4
2018-11-11T01:56:55.232Z,21.4
2018-11-11T01:57:45.689Z,21.4
2018-11-11T01:58:35.274Z,21.4
2018-11-11T01:59:25.667Z,21.4
2018-11-11T02:00:14.215Z,21.4
2018-11-11T02:01:06.647Z,21.4
2018-11-11T02:01:54.702Z,21.4
2018-11-11T02:02:46.582Z,21.4
2018-11-11T02:03:35.639Z,21.4
2018-11-11T02:04:26.514Z,21.4
2018-11-11T02:05:15.763Z,21.4
2018-11-11T02:06:06.589Z,21.4
2018-11-11T02:06:56.907Z,21.5
2018-11-11T02:07:46.159Z,21.4
2018-11-11T02:08:37.091Z,21.5
2018-11-11T02:09:26.512Z,21.5
2018-11-11T02:10:16.357Z,21.5
2018-11-11T02:11:06.134Z,21.5
2018-11-11T02:11:56.814Z,21.5
2018-11-11T02:12:47.935Z,21.5
2018-11-11T02:13:37.437Z,21.5
2018-11-11T02:14:26.981Z,21.5
2018-11-11T02:15:16.960Z,21.6
2018-11-11T02:16:07.379Z,21.6
2018-11-11T02:16:56.779Z,21.6
2018-11-11T02:17:47.489Z,21.5
2018-11-11T02:18:36.961Z,21.5
2018-11-11T02:19:26.811Z,21.5
2018-11-11T02:20:17.619Z,21.5
2018-11-11T02:21:06.977Z,21.5
2018-11-11T02:21:58.005Z,21.5
2018-11-11T02:22:47.713Z,21.5
2018-11-11T02:23:39.189Z,21.4
2018-11-11T02:24:27.629Z,21.4
2018-11-11T02:25:17.425Z,21.5
2018-11-11T02:26:08.268Z,21.5
2018-11-11T02:26:59.163Z,21.5
2018-11-11T02:27:48.345Z,21.5
2018-11-11T02:28:37.150Z,21.5
2018-11-11T02:29:27.409Z,21.4
2018-11-11T02:30:18.163Z,21.5
2018-11-11T02:31:07.831Z,21.5
2018-11-11T02:31:58.517Z,21.5
2018-11-11T02:32:47.596Z,21.5
2018-11-11T02:33:38.078Z,21.5
2018-11-11T02:34:28.623Z,21.5
2018-11-11T02:35:18.500Z,21.6
2018-11-11T02:36:08.858Z,21.6
2018-11-11T02:36:57.935Z,21.6
2018-11-11T02:37:50.398Z,21.6
2018-11-11T02:38:37.610Z,21.6
2018-11-11T02:39:29.501Z,21.6
2018-11-11T02:40:19.020Z,21.6
2018-11-11T02:41:08.803Z,21.6
2018-11-11T02:41:58.709Z,21.6
2018-11-11T02:42:48.409Z,21.6
2018-11-11T02:43:39.824Z,21.6
2018-11-11T02:44:29.327Z,21.6
2018-11-11T02:45:19.742Z,21.6
2018-11-11T02:46:08.397Z,21.6
2018-11-11T02:46:59.064Z,21.6
2018-11-11T02:47:49.311Z,21.6
2018-11-11T02:48:39.722Z,21.6
2018-11-11T02:49:29.151Z,21.6
2018-11-11T02:50:18.467Z,21.6
2018-11-11T02:51:09.700Z,21.6
2018-11-11T02:51:59.164Z,21.6
2018-11-11T02:52:48.779Z,21.6
2018-11-11T02:53:39.177Z,21.6
2018-11-11T02:54:29.074Z,21.6
2018-11-11T02:55:19.661Z,21.6
2018-11-11T02:56:10.069Z,21.6
2018-11-11T02:56:59.439Z,21.6
2018-11-11T02:57:49.479Z,21.6
2018-11-11T02:58:39.843Z,21.6
2018-11-11T02:59:29.275Z,21.6
2018-11-11T03:00:20.085Z,21.5
2018-11-11T03:01:10.888Z,21.5
2018-11-11T03:01:59.614Z,21.5
2018-11-11T03:02:49.927Z,21.5
2018-11-11T03:03:40.989Z,21.5
2018-11-11T03:04:31.735Z,21.5
2018-11-11T03:05:20.639Z,21.5
2018-11-11T03:06:10.978Z,21.5
2018-11-11T03:07:01.181Z,21.5
2018-11-11T03:07:51.351Z,21.5
2018-11-11T03:08:40.071Z,21.5
2018-11-11T03:09:32.511Z,21.5
2018-11-11T03:10:22.074Z,21.5
2018-11-11T03:11:11.194Z,21.6
2018-11-11T03:12:02.173Z,21.6
2018-11-11T03:12:51.994Z,21.6
2018-11-11T03:13:41.776Z,21.6
2018-11-11T03:14:31.759Z,21.6
2018-11-11T03:15:22.249Z,21.6
2018-11-11T03:16:10.393Z,21.6
2018-11-11T03:17:02.248Z,21.6
2018-11-11T03:17:51.758Z,21.6
2018-11-11T03:18:42.015Z,21.6
2018-11-11T03:19:32.311Z,21.6
2018-11-11T03:20:22.642Z,21.6
2018-11-11T03:21:11.963Z,21.6
2018-11-11T03:22:02.086Z,21.6
2018-11-11T03:22:51.891Z,21.6
2018-11-11T03:23:42.440Z,21.7
2018-11-11T03:24:33.077Z,21.7
2018-11-11T03:25:22.058Z,21.7
2018-11-11T03:26:12.359Z,21.7
2018-11-11T03:27:02.079Z,21.7
2018-11-11T03:27:52.190Z,21.7
2018-11-11T03:28:42.240Z,21.7
2018-11-11T03:29:32.915Z,21.6
2018-11-11T03:30:22.988Z,21.6
2018-11-11T03:31:12.896Z,21.6
2018-11-11T03:32:03.132Z,21.6
2018-11-11T03:32:53.347Z,21.6
2018-11-11T03:33:42.733Z,21.6
2018-11-11T03:34:34.336Z,21.6
2018-11-11T03:35:21.599Z,21.6
2018-11-11T03:36:13.046Z,21.6
2018-11-11T03:37:03.818Z,21.6
2018-11-11T03:37:53.537Z,21.6
2018-11-11T03:38:42.061Z,21.6
2018-11-11T03:39:33.384Z,21.6
2018-11-11T03:40:22.434Z,21.6
2018-11-11T03:41:12.647Z,21.6
2018-11-11T03:42:02.839Z,21.6
2018-11-11T03:42:53.604Z,21.6
2018-11-11T03:43:43.604Z,21.6
2018-11-11T03:44:32.918Z,21.6
2018-11-11T03:45:24.015Z,21.6
2018-11-11T03:46:13.789Z,21.6
2018-11-11T03:47:04.224Z,21.6
2018-11-11T03:47:54.189Z,21.6
2018-11-11T03:48:43.736Z,21.6
2018-11-11T03:49:33.947Z,21.6
2018-11-11T03:50:24.213Z,21.6
2018-11-11T03:51:13.901Z,21.6
2018-11-11T03:52:04.711Z,21.6
2018-11-11T03:52:54.806Z,21.6
2018-11-11T03:53:43.740Z,21.6
2018-11-11T03:54:34.863Z,21.6
2018-11-11T03:55:25.482Z,21.6
2018-11-11T03:56:14.010Z,21.6
2018-11-11T03:57:05.633Z,21.7
2018-11-11T03:57:55.368Z,21.7
2018-11-11T03:58:45.900Z,21.7
2018-11-11T03:59:34.295Z,21.7
2018-11-11T04:00:25.528Z,21.7
2018-11-11T04:01:14.537Z,21.7
2018-11-11T04:02:04.143Z,21.7
2018-11-11T04:02:55.561Z,21.7
2018-11-11T04:03:45.280Z,21.8
2018-11-11T04:04:34.288Z,21.8
2018-11-11T04:05:24.163Z,21.8
2018-11-11T04:06:15.951Z,21.8
2018-11-11T04:07:05.649Z,21.8
2018-11-11T04:07:56.652Z,21.8
2018-11-11T04:08:44.614Z,21.8
2018-11-11T04:09:35.533Z,21.8
2018-11-11T04:10:26.975Z,21.8
2018-11-11T04:11:16.345Z,21.8
2018-11-11T04:12:05.363Z,21.8
2018-11-11T04:12:56.447Z,21.8
2018-11-11T04:13:46.565Z,21.8
2018-11-11T04:14:35.444Z,21.7
2018-11-11T04:15:26.609Z,21.7
2018-11-11T04:16:15.582Z,21.7
2018-11-11T04:17:06.671Z,21.7
2018-11-11T04:17:57.357Z,21.7
2018-11-11T04:18:46.663Z,21.7
2018-11-11T04:19:36.889Z,21.7
2018-11-11T04:20:27.077Z,21.7
2018-11-11T04:21:16.484Z,21.7
2018-11-11T04:22:06.846Z,21.7
2018-11-11T04:22:56.987Z,21.6
2018-11-11T04:23:46.694Z,21.6
2018-11-11T04:24:35.997Z,21.6
2018-11-11T04:25:26.979Z,21.6
2018-11-11T04:26:16.914Z,21.6
2018-11-11T04:27:07.249Z,21.6
2018-11-11T04:27:57.136Z,21.6
2018-11-11T04:28:47.509Z,21.6
2018-11-11T04:29:37.077Z,21.6
2018-11-11T04:30:27.283Z,21.6
2018-11-11T04:31:17.526Z,21.6
2018-11-11T04:32:07.851Z,21.6
2018-11-11T04:32:57.058Z,21.6
2018-11-11T04:33:47.695Z,21.6
2018-11-11T04:34:38.050Z,21.6
2018-11-11T04:35:28.358Z,21.6
2018-11-11T04:36:17.899Z,21.6
2018-11-11T04:54:21.286Z,21.8
2018-11-11T04:55:10.686Z,21.8
2018-11-11T04:56:01.516Z,21.8
2018-11-11T04:56:51.384Z,21.8
2018-11-11T04:57:41.678Z,21.8
2018-11-11T04:58:31.454Z,21.8
2018-11-11T04:59:21.431Z,21.8
2018-11-11T05:00:11.571Z,21.8
2018-11-11T05:01:00.714Z,21.8
2018-11-11T05:01:51.988Z,21.8
2018-11-11T05:02:40.836Z,21.8
2018-11-11T05:03:31.063Z,21.8
2018-11-11T05:04:22.288Z,21.8
2018-11-11T05:05:12.341Z,21.8
2018-11-11T05:06:01.058Z,21.8
2018-11-11T05:06:51.981Z,21.8
2018-11-11T05:07:42.338Z,21.7
2018-11-11T05:08:31.763Z,21.6
2018-11-11T05:09:21.884Z,21.6
2018-11-11T05:10:12.126Z,21.5
2018-11-11T05:11:01.469Z,21.4
2018-11-11T05:11:51.783Z,21.4
2018-11-11T05:12:41.633Z,21.4
2018-11-11T05:13:31.015Z,21.4
2018-11-11T05:14:21.488Z,21.4
2018-11-11T05:15:11.425Z,21.3
2018-11-11T05:16:01.586Z,21.4
2018-11-11T05:16:52.468Z,21.4
2018-11-11T05:17:42.267Z,21.4
2018-11-11T05:18:32.125Z,21.3
2018-11-11T05:19:22.665Z,21.3
2018-11-11T05:20:12.764Z,21.3
2018-11-11T05:21:02.972Z,21.3
2018-11-11T05:21:53.639Z,21.3
2018-11-11T05:22:42.670Z,21.3
2018-11-11T05:23:32.130Z,21.3
2018-11-11T05:24:22.714Z,21.3
2018-11-11T05:25:12.224Z,21.3
2018-11-11T05:26:03.097Z,21.3
2018-11-11T05:26:53.479Z,21.3
2018-11-11T05:27:42.919Z,21.3
2018-11-11T05:28:32.678Z,21.3
2018-11-11T05:29:22.241Z,21.3
2018-11-11T05:30:13.624Z,21.3
2018-11-11T05:31:03.280Z,21.3
2018-11-11T05:31:53.321Z,21.3
2018-11-11T05:32:43.277Z,21.3
2018-11-11T05:33:32.547Z,21.2
2018-11-11T05:34:23.976Z,21.2
2018-11-11T05:35:12.789Z,21.2
2018-11-11T05:36:53.593Z,21.2
2018-11-11T05:38:33.138Z,21.2
2018-11-11T05:41:54.031Z,21.2
2018-11-11T05:42:43.713Z,21.2
2018-11-11T05:43:34.156Z,21.2
2018-11-11T05:44:23.813Z,21.2
2018-11-11T05:45:14.736Z,21.2
2018-11-11T05:46:03.961Z,21.2
2018-11-11T05:46:53.820Z,21.2
2018-11-11T05:47:44.376Z,21.3
2018-11-11T05:48:33.805Z,21.3
2018-11-11T05:49:23.713Z,21.3
2018-11-11T05:50:14.148Z,21.3
2018-11-11T05:51:05.701Z,21.3
2018-11-11T05:51:54.553Z,21.3
2018-11-11T05:52:45.302Z,21.3
2018-11-11T05:53:34.842Z,21.3
2018-11-11T05:54:23.465Z,21.3
2018-11-11T05:55:15.525Z,21.3
2018-11-11T05:56:05.055Z,21.3
2018-11-11T05:56:54.315Z,21.3
2018-11-11T05:57:45.142Z,21.3
2018-11-11T05:58:35.750Z,21.3
2018-11-11T05:59:23.920Z,21.4
2018-11-11T06:00:15.572Z,21.3
2018-11-11T06:01:04.655Z,21.3
2018-11-11T06:01:54.867Z,21.3
2018-11-11T06:02:44.818Z,21.3
2018-11-11T06:03:34.725Z,21.3
2018-11-11T06:04:25.427Z,21.3
2018-11-11T06:05:14.553Z,21.3
2018-11-11T06:06:05.725Z,21.3
2018-11-11T06:06:53.824Z,21.3
2018-11-11T06:07:45.174Z,21.3
2018-11-11T06:08:36.007Z,21.3
2018-11-11T06:09:26.206Z,21.3
2018-11-11T06:10:15.820Z,21.3
2018-11-11T06:11:05.612Z,21.3
2018-11-11T06:11:56.704Z,21.3
2018-11-11T06:12:45.467Z,21.3
2018-11-11T06:13:35.966Z,21.3
2018-11-11T06:14:26.504Z,21.3
2018-11-11T06:15:16.209Z,21.3
2018-11-11T06:16:05.229Z,21.3
2018-11-11T06:16:57.109Z,21.3
2018-11-11T06:17:47.073Z,21.3
2018-11-11T06:18:37.374Z,21.3
2018-11-11T06:19:26.486Z,21.3
2018-11-11T06:20:16.566Z,21.3
2018-11-11T06:21:06.058Z,21.3
2018-11-11T06:21:57.726Z,21.3
2018-11-11T06:22:47.008Z,21.3
2018-11-11T06:23:36.711Z,21.3
2018-11-11T06:24:26.426Z,21.3
2018-11-11T06:25:17.428Z,21.3
2018-11-11T06:26:07.501Z,21.3
2018-11-11T06:26:57.240Z,21.3
2018-11-11T06:27:47.210Z,21.3
2018-11-11T06:28:36.778Z,21.3
2018-11-11T06:29:27.398Z,21.4
2018-11-11T06:30:17.181Z,21.4
2018-11-11T06:31:07.044Z,21.4
2018-11-11T06:31:58.085Z,21.4
2018-11-11T06:32:47.060Z,21.4
2018-11-11T06:33:37.684Z,21.4
2018-11-11T06:34:27.578Z,21.4
2018-11-11T06:35:17.808Z,21.4
2018-11-11T06:36:07.651Z,21.4
2018-11-11T06:36:56.908Z,21.4
2018-11-11T06:37:46.895Z,21.4
2018-11-11T06:38:37.818Z,21.4
2018-11-11T06:39:27.577Z,21.5
2018-11-11T06:40:16.327Z,21.5
2018-11-11T06:41:06.890Z,21.5
2018-11-11T06:41:57.774Z,21.5
2018-11-11T06:42:48.633Z,21.5
2018-11-11T06:43:37.052Z,21.5
2018-11-11T06:44:27.436Z,21.5
2018-11-11T06:45:17.462Z,21.4
2018-11-11T06:46:07.838Z,21.4
2018-11-11T06:46:58.409Z,21.4
2018-11-11T06:47:48.027Z,21.3
2018-11-11T06:48:38.440Z,21.3
2018-11-11T06:49:27.458Z,21.3
2018-11-11T06:50:19.080Z,21.3
2018-11-11T06:51:08.680Z,21.2
2018-11-11T06:51:59.016Z,21.2
2018-11-11T06:58:38.609Z,21.1
2018-11-11T06:59:28.473Z,21.1
2018-11-11T07:00:18.467Z,21.1
2018-11-11T07:01:09.109Z,21.1
2018-11-11T07:01:58.471Z,21
2018-11-11T07:02:49.264Z,21.1
2018-11-11T07:03:38.643Z,21.1
2018-11-11T07:04:29.912Z,21.1
2018-11-11T07:05:18.621Z,21.1
2018-11-11T07:06:09.145Z,21.1
2018-11-11T07:07:00.514Z,21.1
2018-11-11T07:07:50.815Z,21.1
2018-11-11T07:08:40.478Z,21
2018-11-11T07:09:30.862Z,21
2018-11-11T07:10:20.720Z,21
2018-11-11T07:11:10.093Z,21
2018-11-11T07:12:00.208Z,21
2018-11-11T07:12:51.543Z,20.9
2018-11-11T07:13:40.043Z,20.8
2018-11-11T07:14:30.138Z,20.7
2018-11-11T07:15:19.914Z,20.6
2018-11-11T07:16:09.747Z,20.4
2018-11-11T07:17:00.982Z,20.2
2018-11-11T07:17:50.353Z,20.1
2018-11-11T07:18:40.831Z,19.9
2018-11-11T07:19:29.726Z,19.8
2018-11-11T07:20:21.200Z,19.6
2018-11-11T07:21:11.001Z,19.5
2018-11-11T07:22:01.898Z,19.4
2018-11-11T07:22:52.167Z,19.3
2018-11-11T07:23:41.397Z,19.3
2018-11-11T07:24:31.795Z,19.3
2018-11-11T07:25:21.387Z,19.3
2018-11-11T07:26:10.360Z,19.4
2018-11-11T07:27:01.708Z,19.4
2018-11-11T07:27:51.997Z,19.5
2018-11-11T07:28:41.246Z,19.5
2018-11-11T07:29:31.887Z,19.6
2018-11-11T07:30:21.537Z,19.6
2018-11-11T07:31:11.490Z,19.6
2018-11-11T07:32:01.252Z,19.7
2018-11-11T07:32:51.632Z,19.8
2018-11-11T07:33:41.659Z,19.8
2018-11-11T07:34:32.085Z,19.8
2018-11-11T07:35:21.512Z,19.8
2018-11-11T07:36:13.447Z,19.8
2018-11-11T07:37:02.409Z,19.8
2018-11-11T07:37:53.024Z,19.8
2018-11-11T07:38:42.465Z,19.8
2018-11-11T07:39:31.530Z,19.9
2018-11-11T07:40:22.347Z,19.9
2018-11-11T07:41:12.526Z,19.9
2018-11-11T07:42:03.602Z,20
2018-11-11T07:42:52.524Z,20.1
2018-11-11T07:43:42.570Z,20.1
2018-11-11T07:44:33.106Z,20.2
2018-11-11T07:45:22.813Z,20.3
2018-11-11T07:46:12.859Z,20.3
2018-11-11T07:47:03.039Z,20.4
2018-11-11T07:47:55.196Z,20.4
2018-11-11T07:48:43.173Z,20.5
2018-11-11T07:49:32.549Z,20.5
2018-11-11T07:50:23.626Z,20.5
2018-11-11T07:51:12.871Z,20.6
2018-11-11T07:52:04.108Z,20.6
2018-11-11T07:52:53.311Z,20.6
2018-11-11T07:53:42.793Z,20.6
2018-11-11T07:54:33.193Z,20.7
2018-11-11T07:55:23.416Z,20.7
2018-11-11T07:56:14.156Z,20.7
2018-11-11T07:57:03.048Z,20.8
2018-11-11T07:57:53.348Z,20.8
2018-11-11T07:58:43.486Z,20.8
2018-11-11T07:59:33.820Z,20.8
2018-11-11T08:00:23.578Z,20.8
2018-11-11T08:01:13.550Z,20.8
2018-11-11T08:02:04.110Z,20.8
2018-11-11T08:02:53.913Z,20.8
2018-11-11T08:03:43.255Z,20.8
2018-11-11T08:04:34.142Z,20.8
2018-11-11T08:05:22.877Z,20.8
2018-11-11T08:06:14.532Z,20.8
2018-11-11T08:07:04.345Z,20.8
2018-11-11T08:07:54.579Z,20.8
2018-11-11T08:08:44.142Z,20.8
2018-11-11T08:09:33.600Z,20.8
2018-11-11T08:10:24.545Z,20.8
2018-11-11T08:11:15.944Z,20.8
2018-11-11T08:12:04.442Z,20.8
2018-11-11T08:12:54.943Z,20.8
2018-11-11T08:13:44.744Z,20.8
2018-11-11T08:14:34.884Z,20.8
2018-11-11T08:15:23.679Z,20.8
2018-11-11T08:16:14.681Z,20.8
2018-11-11T08:17:04.899Z,20.8
2018-11-11T08:17:55.317Z,20.8
2018-11-11T08:18:44.629Z,20.8
2018-11-11T08:19:34.456Z,20.8
2018-11-11T08:20:25.769Z,20.8
2018-11-11T08:21:15.479Z,20.8
2018-11-11T08:22:05.754Z,20.8
2018-11-11T08:22:55.206Z,20.8
2018-11-11T08:23:45.464Z,20.8
2018-11-11T08:24:34.744Z,20.8
2018-11-11T08:25:25.667Z,20.8
2018-11-11T08:26:14.969Z,20.8
2018-11-11T08:27:04.541Z,20.8
2018-11-11T08:27:55.279Z,20.8
2018-11-11T08:28:45.274Z,20.8
2018-11-11T08:29:35.091Z,20.8
2018-11-11T08:30:25.531Z,20.8
2018-11-11T08:31:16.249Z,20.8
2018-11-11T08:32:06.926Z,20.7
2018-11-11T08:32:56.375Z,20.7
2018-11-11T08:33:45.743Z,20.6
2018-11-11T08:34:35.991Z,20.6
2018-11-11T08:35:25.968Z,20.6
2018-11-11T08:36:16.168Z,20.6
2018-11-11T08:37:06.689Z,20.5
2018-11-11T08:37:55.476Z,20.4
2018-11-11T08:38:47.411Z,20.4
2018-11-11T08:39:36.835Z,20.5
2018-11-11T08:40:26.682Z,20.5
2018-11-11T08:41:15.563Z,20.3
2018-11-11T08:42:06.502Z,20.2
2018-11-11T08:42:56.383Z,20.1
2018-11-11T08:43:46.679Z,20
2018-11-11T08:44:36.678Z,19.9
2018-11-11T08:45:27.061Z,19.9
2018-11-11T08:46:16.478Z,20.3
2018-11-11T08:47:06.850Z,20.6
2018-11-11T08:47:57.868Z,20.6
2018-11-11T08:48:47.270Z,20.7
2018-11-11T08:49:38.053Z,20.6
2018-11-11T08:50:26.795Z,20.5
2018-11-11T08:51:17.440Z,20.5
2018-11-11T08:52:07.767Z,20.4
2018-11-11T09:08:48.536Z,19.2
2018-11-11T09:09:37.702Z,19.1
2018-11-11T09:10:28.998Z,19
2018-11-11T09:11:19.498Z,18.9
2018-11-11T09:12:07.823Z,18.9
2018-11-11T09:12:57.483Z,18.8
2018-11-11T09:13:48.901Z,18.8
2018-11-11T09:14:38.888Z,18.8
2018-11-11T09:15:27.499Z,18.8
2018-11-11T09:17:09.112Z,18.6
2018-11-11T09:17:58.948Z,18.6
2018-11-11T09:18:49.258Z,18.6
2018-11-11T09:19:38.799Z,18.5
2018-11-11T09:20:29.221Z,18.5
2018-11-11T09:21:19.845Z,18.6
2018-11-11T09:22:09.308Z,18.6
2018-11-11T09:22:59.072Z,18.6
2018-11-11T09:23:48.986Z,18.6
2018-11-11T09:24:38.686Z,18.5
2018-11-11T09:25:29.887Z,18.4
2018-11-11T09:26:18.946Z,18.4
2018-11-11T09:27:09.968Z,18.3
2018-11-11T09:27:58.928Z,18.3
2018-11-11T09:28:50.278Z,18.3
2018-11-11T09:29:41.761Z,18.3
2018-11-11T09:30:32.285Z,18.3
2018-11-11T09:31:20.463Z,18.4
2018-11-11T09:32:09.715Z,18.4
2018-11-11T09:32:59.425Z,18.4
2018-11-11T09:33:49.832Z,18.4
2018-11-11T09:34:40.147Z,18.4
2018-11-11T09:35:32.188Z,18.3
2018-11-11T09:36:20.130Z,18.3
2018-11-11T09:37:10.357Z,18.1
2018-11-11T09:38:00.467Z,18.1
2018-11-11T09:38:50.774Z,18
2018-11-11T09:39:41.407Z,18.1
2018-11-11T09:40:30.007Z,18.1
2018-11-11T09:41:21.327Z,18.1
2018-11-11T09:42:10.980Z,18.1
2018-11-11T09:43:00.055Z,18.1
2018-11-11T09:43:50.658Z,18.1
2018-11-11T09:44:40.268Z,18.1
2018-11-11T09:45:31.287Z,18.1
2018-11-11T09:46:21.857Z,18.1
2018-11-11T09:47:11.329Z,18.1
2018-11-11T09:48:02.466Z,18.1
2018-11-11T09:48:51.231Z,18.1
2018-11-11T09:49:41.027Z,18.1
2018-11-11T09:50:32.129Z,18.1
2018-11-11T09:51:20.745Z,18.1
2018-11-11T09:52:10.691Z,18
2018-11-11T09:53:00.691Z,17.9
2018-11-11T09:53:51.168Z,17.8
2018-11-11T09:54:41.680Z,17.8
2018-11-11T09:55:31.132Z,17.8
2018-11-11T09:56:22.377Z,17.8
2018-11-11T09:57:12.355Z,17.8
2018-11-11T09:58:01.368Z,17.8
2018-11-11T09:58:53.415Z,17.8
2018-11-11T09:59:44.749Z,17.8
2018-11-11T10:00:32.942Z,17.8
2018-11-11T10:01:21.196Z,17.6
2018-11-11T10:02:10.470Z,17.7
2018-11-11T10:03:02.310Z,17.7
2018-11-11T10:03:52.055Z,17.6
2018-11-11T10:04:42.113Z,17.6
2018-11-11T10:05:32.436Z,17.7
2018-11-11T10:06:22.423Z,17.7
2018-11-11T10:07:13.193Z,17.6
2018-11-11T10:08:01.675Z,17.6
2018-11-11T10:08:51.272Z,17.5
2018-11-11T10:09:41.914Z,17.6
2018-11-11T10:10:32.452Z,17.6
2018-11-11T10:11:23.178Z,17.6
2018-11-11T10:12:12.373Z,17.6
2018-11-11T10:13:02.115Z,17.6
2018-11-11T10:13:52.139Z,17.6
2018-11-11T10:14:42.649Z,17.7
2018-11-11T10:15:32.799Z,17.8
2018-11-11T10:16:23.227Z,17.8
2018-11-11T10:17:13.048Z,17.8
2018-11-11T10:18:03.624Z,17.9
2018-11-11T10:18:52.883Z,17.9
2018-11-11T10:19:42.831Z,17.9
2018-11-11T10:20:34.293Z,17.8
2018-11-11T10:21:23.898Z,17.8
2018-11-11T10:22:13.389Z,17.8
2018-11-11T10:23:02.624Z,17.7
2018-11-11T10:23:53.259Z,17.7
2018-11-11T10:24:42.707Z,17.7
2018-11-11T10:25:33.427Z,17.7
2018-11-11T10:26:24.726Z,17.7
2018-11-11T10:27:14.325Z,17.6
2018-11-11T10:28:03.836Z,17.6
2018-11-11T10:28:53.988Z,17.6
2018-11-11T10:29:43.490Z,17.5
2018-11-11T10:30:34.038Z,17.4
2018-11-11T10:31:23.176Z,17.4
2018-11-11T10:32:13.630Z,17.4
2018-11-11T10:33:04.395Z,17.4
2018-11-11T10:33:53.455Z,17.4
2018-11-11T10:34:44.188Z,17.4
2018-11-11T10:35:35.115Z,17.4
2018-11-11T10:36:24.629Z,17.4
2018-11-11T10:37:14.068Z,17.4
2018-11-11T10:38:05.228Z,17.4
2018-11-11T10:38:53.720Z,17.4
2018-11-11T10:39:45.407Z,17.4
2018-11-11T10:40:35.553Z,17.4
2018-11-11T10:41:23.831Z,17.4
2018-11-11T10:42:14.020Z,17.4
2018-11-11T10:43:04.624Z,17.4
2018-11-11T10:43:54.679Z,17.5
2018-11-11T10:44:44.307Z,17.6
2018-11-11T10:45:34.459Z,17.6
2018-11-11T10:46:24.690Z,17.6
2018-11-11T10:47:15.615Z,17.5
2018-11-11T10:48:05.529Z,17.4
2018-11-11T10:48:55.799Z,17.4
2018-11-11T10:49:46.157Z,17.4
2018-11-11T10:50:34.667Z,17.4
2018-11-11T10:51:26.042Z,17.4
2018-11-11T10:52:15.844Z,17.5
2018-11-11T10:53:05.472Z,17.6
2018-11-11T10:53:55.089Z,17.6
2018-11-11T10:54:47.086Z,17.6
2018-11-11T10:55:35.774Z,17.6
2018-11-11T10:56:25.124Z,17.6
2018-11-11T10:57:15.837Z,17.7
2018-11-11T10:58:05.657Z,17.7
2018-11-11T10:58:55.939Z,17.6
2018-11-11T10:59:46.093Z,17.6
2018-11-11T11:00:35.506Z,17.6
2018-11-11T11:01:25.801Z,17.6
2018-11-11T11:02:16.771Z,17.6
2018-11-11T11:03:06.263Z,17.7
2018-11-11T11:03:55.553Z,17.7
2018-11-11T11:04:45.873Z,17.8
2018-11-11T11:05:36.766Z,17.8
2018-11-11T11:06:27.356Z,17.8
2018-11-11T11:07:17.713Z,17.7
2018-11-11T11:08:07.144Z,17.7
2018-11-11T11:08:56.251Z,17.7
2018-11-11T11:09:46.263Z,17.6
2018-11-11T11:10:37.456Z,17.6
2018-11-11T11:11:26.846Z,17.6
2018-11-11T11:12:17.491Z,17.6
2018-11-11T11:13:08.431Z,17.6
2018-11-11T11:13:58.314Z,17.6
2018-11-11T11:14:47.921Z,17.6
2018-11-11T11:15:37.030Z,17.5
2018-11-11T11:16:27.141Z,17.5
2018-11-11T11:17:17.900Z,17.5
2018-11-11T11:18:07.061Z,17.4
2018-11-11T11:18:57.105Z,17.4
2018-11-11T11:19:48.628Z,17.4
2018-11-11T11:20:37.303Z,17.4
2018-11-11T11:21:27.882Z,17.5
2018-11-11T11:22:18.467Z,17.5
2018-11-11T11:23:08.821Z,17.5
2018-11-11T11:23:57.305Z,17.5
2018-11-11T11:24:47.220Z,17.6
2018-11-11T11:25:38.130Z,17.6
2018-11-11T11:26:27.843Z,17.6
2018-11-11T11:27:19.650Z,17.7
2018-11-11T11:28:07.854Z,17.8
2018-11-11T11:28:59.002Z,17.8
2018-11-11T11:29:48.174Z,17.8
2018-11-11T11:30:38.487Z,17.8
2018-11-11T11:31:29.837Z,17.8
2018-11-11T11:32:20.167Z,17.9
2018-11-11T11:33:08.639Z,17.9
2018-11-11T11:33:59.667Z,17.9
2018-11-11T11:34:49.365Z,17.9
2018-11-11T11:35:40.672Z,18
2018-11-11T11:36:28.983Z,18
2018-11-11T11:37:19.887Z,18.1
2018-11-11T11:38:09.857Z,18.1
2018-11-11T11:38:59.968Z,18.1
2018-11-11T11:39:49.308Z,18.1
2018-11-11T11:40:39.366Z,18.1
2018-11-11T11:41:30.507Z,18.1
2018-11-11T11:42:19.912Z,18.1
2018-11-11T11:43:09.114Z,18.1
2018-11-11T11:43:59.262Z,18.2
2018-11-11T11:44:48.820Z,18.1
2018-11-11T11:45:39.897Z,18.2
2018-11-11T11:46:29.436Z,18.1
2018-11-11T11:47:21.365Z,18.2
2018-11-11T11:48:10.609Z,18.1
2018-11-11T11:48:59.853Z,18.1
2018-11-11T11:49:49.102Z,18.1
2018-11-11T11:50:40.061Z,18.1
2018-11-11T11:51:30.178Z,18.1
2018-11-11T11:52:22.187Z,18.1
2018-11-11T11:53:11.729Z,18.1
2018-11-11T11:54:00.166Z,18.1
2018-11-11T11:54:50.091Z,18.1
2018-11-11T11:55:40.276Z,18.1
2018-11-11T11:56:30.677Z,18.1
2018-11-11T11:57:21.071Z,18.1
2018-11-11T11:58:09.610Z,18.2
2018-11-11T11:59:00.092Z,18.2
2018-11-11T11:59:50.936Z,18.2
2018-11-11T12:00:40.705Z,18.2
2018-11-11T12:01:30.778Z,18.2
2018-11-11T12:02:21.233Z,18.2
2018-11-11T12:03:10.559Z,18.1
2018-11-11T12:04:00.173Z,18.2
2018-11-11T12:04:50.935Z,18.2
2018-11-11T12:05:41.036Z,18.2
2018-11-11T12:06:30.113Z,18.2
2018-11-11T12:07:21.733Z,18.2
2018-11-11T12:08:11.023Z,18.2